createdAt,value
2018-05-23T00:01:38.569Z,5.20
2018-05-23T00:04:08.172Z,5.22
2018-05-23T00:06:40.853Z,5.53
2018-05-23T00:09:10.470Z,5.35
2018-05-23T00:11:41.585Z,5.40
2018-05-23T00:14:11.205Z,5.75
2018-05-23T00:16:43.676Z,5.40
2018-05-23T00:19:13.265Z,6.83
2018-05-23T00:21:42.822Z,8.43
2018-05-23T00:24:14.726Z,8.67
2018-05-23T00:26:45.113Z,9.30
2018-05-23T00:29:14.720Z,9.55
2018-05-23T00:31:45.073Z,9.53
2018-05-23T00:34:14.663Z,8.73
2018-05-23T00:36:56.838Z,8.60
2018-05-23T00:39:27.193Z,8.30
2018-05-23T00:41:56.798Z,7.43
2018-05-23T00:44:26.385Z,7.50
2018-05-23T00:46:55.945Z,7.18
2018-05-23T00:49:25.514Z,7.30
2018-05-23T00:51:55.069Z,7.17
2018-05-23T00:54:24.633Z,6.97
2018-05-23T00:56:54.461Z,7.15
2018-05-23T00:59:24.598Z,7.43
2018-05-23T01:01:54.160Z,8.30
2018-05-23T01:04:23.898Z,8.80
2018-05-23T01:06:53.459Z,8.57
2018-05-23T01:09:23.805Z,8.10
2018-05-23T01:11:53.377Z,8.80
2018-05-23T01:14:23.733Z,8.63
2018-05-23T01:16:53.276Z,8.37
2018-05-23T01:19:25.769Z,7.83
2018-05-23T01:21:55.333Z,6.97
2018-05-23T01:24:25.661Z,7.80
2018-05-23T01:26:55.226Z,8.83
2018-05-23T01:29:24.796Z,8.93
2018-05-23T01:31:57.346Z,8.90
2018-05-23T01:34:26.900Z,8.27
2018-05-23T01:36:58.013Z,8.00
2018-05-23T01:39:28.322Z,7.93
2018-05-23T01:42:00.288Z,7.60
2018-05-23T01:44:29.873Z,7.90
2018-05-23T01:46:59.413Z,7.47
2018-05-23T01:49:29.755Z,7.90
2018-05-23T01:51:59.353Z,7.57
2018-05-23T01:54:30.561Z,7.70
2018-05-23T01:57:00.138Z,7.20
2018-05-23T01:59:30.454Z,6.33
2018-05-23T02:02:00.037Z,7.37
2018-05-23T02:04:29.580Z,7.10
2018-05-23T02:06:59.183Z,7.47
2018-05-23T02:09:29.523Z,6.80
2018-05-23T02:11:59.101Z,6.73
2018-05-23T02:14:29.305Z,7.75
2018-05-23T02:16:58.866Z,7.27
2018-05-23T02:19:28.442Z,7.53
2018-05-23T02:21:59.537Z,7.63
2018-05-23T02:24:29.862Z,8.30
2018-05-23T02:27:00.193Z,7.67
2018-05-23T02:29:29.733Z,8.35
2018-05-23T02:32:00.095Z,8.30
2018-05-23T02:34:29.693Z,7.80
2018-05-23T02:37:00.830Z,7.40
2018-05-23T02:39:33.366Z,7.60
2018-05-23T02:42:02.936Z,7.23
2018-05-23T02:44:32.514Z,7.13
2018-05-23T02:47:02.158Z,7.10
2018-05-23T02:49:34.606Z,7.30
2018-05-23T02:52:04.194Z,6.90
2018-05-23T02:54:34.489Z,6.60
2018-05-23T02:57:04.067Z,7.67
2018-05-23T02:59:33.634Z,7.40
2018-05-23T03:02:03.962Z,8.17
2018-05-23T03:04:33.538Z,7.13
2018-05-23T03:07:03.329Z,7.72
2018-05-23T03:09:32.929Z,7.57
2018-05-23T03:12:02.516Z,7.73
2018-05-23T03:14:33.641Z,7.57
2018-05-23T03:17:04.058Z,7.10
2018-05-23T03:19:33.619Z,7.53
2018-05-23T03:22:18.086Z,7.07
2018-05-23T03:24:47.664Z,6.57
2018-05-23T03:27:17.993Z,7.00
2018-05-23T03:29:47.572Z,6.90
2018-05-23T03:32:17.906Z,6.77
2018-05-23T03:34:48.250Z,5.97
2018-05-23T03:37:18.609Z,6.93
2018-05-23T03:39:48.185Z,6.30
2018-05-23T03:42:18.542Z,15.63
2018-05-23T03:44:48.934Z,18.40
2018-05-23T03:47:18.487Z,17.93
2018-05-23T03:49:49.582Z,17.20
2018-05-23T03:52:19.933Z,17.60
2018-05-23T03:54:50.213Z,18.83
2018-05-23T03:57:39.519Z,18.83
2018-05-23T04:00:53.161Z,17.40
2018-05-23T04:03:43.897Z,17.50
2018-05-23T04:06:38.097Z,18.43
2018-05-23T04:09:09.269Z,19.05
2018-05-23T04:11:57.789Z,17.07
2018-05-23T04:14:46.330Z,16.27
2018-05-23T04:17:33.685Z,15.73
2018-05-23T04:20:03.258Z,16.03
2018-05-23T04:22:46.445Z,15.87
2018-05-23T04:25:30.926Z,17.15
2018-05-23T04:28:01.266Z,16.87
2018-05-23T04:30:30.829Z,17.50
2018-05-23T04:33:00.398Z,19.55
2018-05-23T04:35:29.986Z,22.23
2018-05-23T04:37:59.568Z,15.57
2018-05-23T04:40:29.216Z,10.87
2018-05-23T04:42:58.773Z,9.10
2018-05-23T04:45:29.125Z,7.40
2018-05-23T04:47:59.549Z,7.07
2018-05-23T04:50:29.120Z,6.27
2018-05-23T04:52:58.686Z,6.60
2018-05-23T04:55:29.042Z,6.97
2018-05-23T04:57:59.385Z,7.40
2018-05-23T05:00:29.909Z,6.90
2018-05-23T05:03:02.390Z,7.50
2018-05-23T05:05:34.989Z,7.33
2018-05-23T05:08:07.547Z,7.97
2018-05-23T05:10:37.885Z,6.87
2018-05-23T05:13:08.237Z,7.78
2018-05-23T05:15:37.798Z,7.03
2018-05-23T05:18:08.946Z,7.70
2018-05-23T05:20:38.540Z,6.97
2018-05-23T05:23:09.641Z,6.87
2018-05-23T05:25:39.205Z,7.53
2018-05-23T05:28:09.545Z,7.13
2018-05-23T05:30:39.145Z,7.07
2018-05-23T05:33:08.706Z,6.37
2018-05-23T05:35:38.290Z,6.93
2018-05-23T05:38:07.906Z,7.00
2018-05-23T05:40:37.493Z,6.82
2018-05-23T05:43:19.638Z,7.18
2018-05-23T05:45:49.196Z,6.47
2018-05-23T05:48:18.770Z,5.93
2018-05-23T05:50:48.341Z,6.03
2018-05-23T05:53:18.681Z,6.55
2018-05-23T05:55:49.023Z,5.60
2018-05-23T05:58:18.588Z,6.18
2018-05-23T06:00:48.161Z,6.00
2018-05-23T06:03:17.707Z,6.00
2018-05-23T06:05:48.059Z,6.27
2018-05-23T06:08:18.406Z,5.60
2018-05-23T06:10:49.718Z,6.30
2018-05-23T06:13:20.782Z,5.80
2018-05-23T06:15:53.297Z,5.87
2018-05-23T06:18:25.812Z,6.00
2018-05-23T06:20:55.406Z,5.47
2018-05-23T06:23:37.527Z,5.18
2018-05-23T06:26:09.878Z,5.63
2018-05-23T06:28:40.958Z,4.90
2018-05-23T06:31:10.580Z,4.57
2018-05-23T06:33:40.920Z,4.47
2018-05-23T06:36:11.274Z,4.37
2018-05-23T06:38:41.664Z,4.32
2018-05-23T06:41:11.281Z,4.10
2018-05-23T06:43:40.919Z,4.60
2018-05-23T06:46:10.412Z,4.20
2018-05-23T06:48:39.987Z,4.27
2018-05-23T06:51:09.745Z,4.80
2018-05-23T06:53:39.314Z,4.27
2018-05-23T06:56:08.867Z,3.60
2018-05-23T07:01:18.222Z,4.12
2018-05-23T07:03:50.753Z,4.18
2018-05-23T07:06:21.160Z,4.10
2018-05-23T07:08:50.739Z,3.67
2018-05-23T07:11:20.345Z,4.00
2018-05-23T07:13:50.709Z,3.87
2018-05-23T07:16:20.355Z,4.10
2018-05-23T07:18:50.717Z,4.20
2018-05-23T07:21:20.305Z,4.62
2018-05-23T07:23:49.864Z,4.23
2018-05-23T07:26:19.449Z,4.33
2018-05-23T07:29:02.354Z,4.50
2018-05-23T07:31:32.757Z,3.53
2018-05-23T07:34:02.519Z,3.60
2018-05-23T07:36:32.872Z,3.53
2018-05-23T07:39:05.194Z,3.60
2018-05-23T07:41:34.796Z,3.87
2018-05-23T07:44:04.419Z,4.13
2018-05-23T07:46:33.989Z,3.57
2018-05-23T07:49:04.347Z,3.63
2018-05-23T07:51:34.190Z,3.70
2018-05-23T07:54:04.286Z,3.70
2018-05-23T07:56:34.672Z,3.40
2018-05-23T07:59:05.009Z,3.30
2018-05-23T08:01:34.602Z,3.13
2018-05-23T08:04:04.179Z,3.67
2018-05-23T08:06:33.759Z,3.13
2018-05-23T08:09:05.324Z,3.42
2018-05-23T08:11:47.456Z,3.20
2018-05-23T08:14:17.777Z,2.90
2018-05-23T08:16:47.390Z,2.83
2018-05-23T08:19:16.939Z,3.37
2018-05-23T08:21:59.877Z,3.45
2018-05-23T08:24:30.377Z,3.77
2018-05-23T08:26:59.865Z,3.30
2018-05-23T08:29:31.015Z,3.10
2018-05-23T08:32:00.601Z,3.40
2018-05-23T08:34:30.193Z,3.00
2018-05-23T08:37:00.563Z,3.20
2018-05-23T08:39:30.160Z,2.90
2018-05-23T08:41:59.734Z,3.10
2018-05-23T08:44:29.410Z,3.00
2018-05-23T08:47:00.498Z,2.83
2018-05-23T08:49:30.086Z,2.70
2018-05-23T08:51:59.669Z,2.87
2018-05-23T08:54:29.295Z,3.07
2018-05-23T08:56:59.469Z,2.60
2018-05-23T08:59:29.852Z,2.90
2018-05-23T09:01:59.417Z,2.67
2018-05-23T09:04:29.781Z,2.50
2018-05-23T09:07:00.126Z,2.53
2018-05-23T09:09:29.707Z,2.47
2018-05-23T09:11:59.293Z,2.13
2018-05-23T09:14:28.889Z,2.45
2018-05-23T09:16:58.466Z,2.63
2018-05-23T09:19:29.591Z,2.40
2018-05-23T09:21:59.305Z,2.57
2018-05-23T09:24:29.624Z,2.70
2018-05-23T09:26:59.192Z,2.30
2018-05-23T09:29:28.777Z,2.30
2018-05-23T09:31:58.691Z,2.50
2018-05-23T09:34:31.254Z,2.70
2018-05-23T09:37:00.979Z,2.23
2018-05-23T09:39:30.549Z,2.60
2018-05-23T09:42:00.076Z,2.57
2018-05-23T09:44:29.685Z,2.67
2018-05-23T09:46:59.250Z,2.40
2018-05-23T09:49:28.802Z,2.23
2018-05-23T09:51:58.381Z,2.17
2018-05-23T09:54:27.925Z,2.13
2018-05-23T09:56:57.489Z,2.27
2018-05-23T09:59:27.074Z,2.10
2018-05-23T10:01:56.636Z,2.10
2018-05-23T10:04:26.223Z,2.53
2018-05-23T10:06:55.764Z,2.20
2018-05-23T10:09:27.089Z,2.20
2018-05-23T10:11:56.665Z,2.30
2018-05-23T10:14:27.010Z,2.00
2018-05-23T10:16:56.594Z,2.07
2018-05-23T10:19:26.179Z,2.00
2018-05-23T10:21:55.757Z,1.90
2018-05-23T10:24:25.315Z,1.97
2018-05-23T10:26:54.877Z,2.03
2018-05-23T10:29:24.466Z,2.10
2018-05-23T10:31:54.093Z,2.07
2018-05-23T10:34:23.660Z,1.73
2018-05-23T10:37:08.736Z,2.28
2018-05-23T10:39:40.743Z,2.20
2018-05-23T10:42:10.294Z,1.90
2018-05-23T10:44:39.854Z,2.03
2018-05-23T10:47:09.437Z,1.77
2018-05-23T10:49:39.762Z,2.00
2018-05-23T10:52:09.385Z,1.70
2018-05-23T10:54:40.409Z,1.80
2018-05-23T10:57:10.028Z,1.77
2018-05-23T10:59:41.094Z,2.30
2018-05-23T11:02:10.678Z,1.77
2018-05-23T11:04:42.581Z,1.90
2018-05-23T11:07:12.142Z,1.87
2018-05-23T11:09:42.489Z,1.87
2018-05-23T11:12:12.057Z,2.10
2018-05-23T11:14:41.641Z,1.50
2018-05-23T11:17:11.194Z,1.80
2018-05-23T11:19:40.769Z,2.17
2018-05-23T11:22:10.849Z,1.90
2018-05-23T11:24:40.397Z,1.80
2018-05-23T11:27:09.995Z,1.87
2018-05-23T11:29:39.644Z,1.60
2018-05-23T11:32:09.935Z,1.97
2018-05-23T11:34:39.488Z,1.80
2018-05-23T11:37:10.602Z,2.30
2018-05-23T11:39:40.193Z,2.17
2018-05-23T11:42:09.785Z,2.28
2018-05-23T11:44:39.356Z,2.50
2018-05-23T11:47:09.685Z,1.97
2018-05-23T11:49:39.268Z,2.20
2018-05-23T11:52:09.672Z,2.20
2018-05-23T11:54:39.243Z,1.90
2018-05-23T11:57:09.524Z,2.10
2018-05-23T11:59:41.442Z,1.90
2018-05-23T12:02:11.003Z,2.20
2018-05-23T12:04:43.530Z,2.10
2018-05-23T12:07:13.446Z,2.20
2018-05-23T12:09:43.020Z,1.97
2018-05-23T12:12:12.629Z,2.10
2018-05-23T12:14:42.189Z,2.00
2018-05-23T12:17:11.770Z,2.20
2018-05-23T12:19:41.411Z,2.20
2018-05-23T12:22:10.926Z,2.10
2018-05-23T12:24:40.497Z,2.03
2018-05-23T12:27:10.063Z,2.10
2018-05-23T12:29:39.620Z,2.10
2018-05-23T12:32:09.213Z,2.03
2018-05-23T12:34:39.561Z,2.20
2018-05-23T12:37:10.042Z,2.45
2018-05-23T12:39:39.629Z,2.13
2018-05-23T12:42:09.282Z,2.50
2018-05-23T12:44:38.837Z,2.40
2018-05-23T12:47:11.367Z,2.23
2018-05-23T12:49:40.992Z,2.43
2018-05-23T12:52:10.573Z,2.40
2018-05-23T12:54:40.141Z,2.33
2018-05-23T12:57:10.474Z,2.30
2018-05-23T12:59:40.047Z,2.50
2018-05-23T13:02:09.673Z,2.73
2018-05-23T13:04:40.025Z,2.50
2018-05-23T13:07:09.608Z,2.53
2018-05-23T13:09:39.953Z,2.72
2018-05-23T13:12:09.546Z,2.73
2018-05-23T13:14:39.169Z,2.70
2018-05-23T13:17:08.744Z,2.78
2018-05-23T13:19:38.317Z,2.80
2018-05-23T13:22:07.984Z,2.90
2018-05-23T13:24:39.058Z,2.60
2018-05-23T13:27:11.530Z,2.30
2018-05-23T13:29:41.074Z,2.70
2018-05-23T13:32:10.645Z,2.50
2018-05-23T13:34:40.175Z,2.90
2018-05-23T13:37:09.760Z,2.90
2018-05-23T13:39:39.408Z,3.05
2018-05-23T13:42:09.082Z,2.80
2018-05-23T13:44:37.863Z,2.77
2018-05-23T13:47:10.266Z,2.83
2018-05-23T13:49:40.666Z,2.60
2018-05-23T13:52:10.200Z,2.97
2018-05-23T13:54:40.090Z,3.00
2018-05-23T13:57:09.702Z,3.10
2018-05-23T13:59:39.325Z,3.33
2018-05-23T14:02:08.132Z,3.33
2018-05-23T14:04:37.705Z,3.50
2018-05-23T14:07:06.565Z,3.27
2018-05-23T14:09:36.150Z,3.40
2018-05-23T14:12:05.748Z,3.00
2018-05-23T14:14:35.318Z,3.00
2018-05-23T14:17:04.906Z,3.70
2018-05-23T14:19:34.471Z,3.67
2018-05-23T14:22:04.048Z,3.20
2018-05-23T14:24:32.849Z,3.27
2018-05-23T14:27:02.401Z,3.50
2018-05-23T14:29:32.717Z,3.60
2018-05-23T14:32:02.297Z,3.70
2018-05-23T14:34:31.899Z,3.10
2018-05-23T14:37:14.045Z,3.80
2018-05-23T14:39:43.627Z,3.17
2018-05-23T14:42:13.203Z,4.00
2018-05-23T14:44:42.765Z,3.40
2018-05-23T14:47:13.849Z,3.33
2018-05-23T14:49:43.438Z,3.47
2018-05-23T14:52:13.016Z,3.62
2018-05-23T14:54:42.608Z,3.50
2018-05-23T14:57:12.922Z,3.13
2018-05-23T14:59:43.294Z,3.73
2018-05-23T15:02:12.878Z,3.90
2018-05-23T15:04:45.493Z,3.63
2018-05-23T15:09:52.950Z,3.70
2018-05-23T15:12:22.515Z,3.83
2018-05-23T15:14:52.069Z,4.13
2018-05-23T15:17:22.488Z,3.80
2018-05-23T15:19:52.818Z,4.22
2018-05-23T15:22:22.421Z,4.03
2018-05-23T15:24:51.967Z,4.30
2018-05-23T15:27:21.554Z,3.60
2018-05-23T15:29:51.103Z,3.90
2018-05-23T15:32:22.220Z,4.10
2018-05-23T15:34:51.807Z,4.00
2018-05-23T15:37:21.398Z,3.70
2018-05-23T15:39:50.978Z,4.10
2018-05-23T15:42:20.549Z,3.90
2018-05-23T15:44:51.682Z,3.87
2018-05-23T15:47:21.232Z,3.80
2018-05-23T15:49:50.825Z,3.43
2018-05-23T15:52:23.412Z,5.35
2018-05-23T15:54:52.285Z,5.30
2018-05-23T15:57:21.844Z,4.80
2018-05-23T15:59:51.393Z,4.97
2018-05-23T16:02:20.981Z,5.23
2018-05-23T16:04:50.534Z,4.37
2018-05-23T16:07:20.143Z,4.20
2018-05-23T16:09:49.729Z,4.47
2018-05-23T16:12:19.297Z,4.77
2018-05-23T16:14:48.916Z,4.80
2018-05-23T16:17:18.442Z,3.83
2018-05-23T16:19:48.023Z,4.70
2018-05-23T16:22:17.606Z,4.00
2018-05-23T16:24:47.271Z,4.40
2018-05-23T16:27:16.774Z,4.30
2018-05-23T16:29:46.345Z,4.17
2018-05-23T16:32:16.708Z,3.92
2018-05-23T16:34:47.837Z,4.70
2018-05-23T16:37:20.533Z,3.93
2018-05-23T16:39:50.324Z,4.47
2018-05-23T16:42:20.794Z,4.30
2018-05-23T16:44:50.701Z,4.07
2018-05-23T16:47:20.298Z,3.70
2018-05-23T16:49:49.849Z,4.40
2018-05-23T16:52:20.222Z,4.23
2018-05-23T16:54:50.579Z,4.27
2018-05-23T16:57:20.163Z,3.10
2018-05-23T16:59:49.738Z,4.00
2018-05-23T17:02:19.304Z,4.00
2018-05-23T17:04:48.913Z,4.10
2018-05-23T17:07:19.270Z,3.70
2018-05-23T17:09:48.826Z,3.90
2018-05-23T17:12:20.077Z,4.20
2018-05-23T17:15:02.936Z,3.83
2018-05-23T17:17:32.514Z,3.20
2018-05-23T17:20:02.101Z,17.70
2018-05-23T17:22:31.682Z,6.07
2018-05-23T17:25:02.053Z,3.80
2018-05-23T17:27:32.499Z,4.07
2018-05-23T17:30:03.378Z,3.70
2018-05-23T17:32:32.993Z,3.00
2018-05-23T17:35:02.564Z,34.27
2018-05-23T17:37:32.157Z,11.57
2018-05-23T17:40:02.392Z,6.37
2018-05-23T17:42:32.164Z,4.97
2018-05-23T17:45:01.735Z,4.30
2018-05-23T17:47:32.100Z,3.87
2018-05-23T17:50:03.225Z,3.60
2018-05-23T17:52:32.840Z,3.67
2018-05-23T17:55:02.422Z,3.03
2018-05-23T17:57:32.758Z,3.00
2018-05-23T18:00:02.512Z,3.20
2018-05-23T18:02:32.091Z,3.40
2018-05-23T18:05:03.234Z,3.30
2018-05-23T18:07:35.903Z,3.50
2018-05-23T18:10:06.307Z,3.50
2018-05-23T18:12:38.837Z,3.37
2018-05-23T18:15:08.433Z,3.20
2018-05-23T18:17:38.778Z,3.63
2018-05-23T18:20:08.364Z,3.40
2018-05-23T18:22:38.812Z,3.33
2018-05-23T18:25:09.228Z,2.97
2018-05-23T18:27:38.735Z,3.22
2018-05-23T18:30:09.101Z,3.20
2018-05-23T18:33:51.924Z,2.90
2018-05-23T18:36:24.450Z,3.17
2018-05-23T18:38:54.213Z,4.50
2018-05-23T18:41:26.136Z,3.70
2018-05-23T18:43:56.563Z,3.57
2018-05-23T18:46:26.148Z,3.58
2018-05-23T18:48:56.616Z,3.27
2018-05-23T18:51:26.197Z,3.13
2018-05-23T18:53:57.366Z,2.97
2018-05-23T18:56:26.946Z,2.90
2018-05-23T18:58:57.335Z,2.80
2018-05-23T19:01:26.928Z,2.80
2018-05-23T19:03:56.506Z,2.90
2018-05-23T19:06:26.084Z,2.77
2018-05-23T19:08:55.750Z,2.97
2018-05-23T19:11:26.118Z,2.70
2018-05-23T19:13:55.753Z,3.07
2018-05-23T19:16:26.457Z,2.47
2018-05-23T19:18:56.199Z,2.83
2018-05-23T19:21:25.856Z,2.95
2018-05-23T19:23:55.594Z,2.80
2018-05-23T19:26:25.296Z,5.10
2018-05-23T19:28:55.035Z,3.40
2018-05-23T19:31:27.632Z,3.53
2018-05-23T19:33:58.805Z,3.30
2018-05-23T19:36:28.442Z,2.87
2018-05-23T19:39:01.027Z,2.77
2018-05-23T19:41:31.507Z,2.78
2018-05-23T19:44:02.422Z,2.47
2018-05-23T19:46:32.058Z,2.83
2018-05-23T19:49:01.648Z,2.50
2018-05-23T19:51:31.581Z,2.70
2018-05-23T19:54:01.262Z,3.13
2018-05-23T19:56:30.842Z,2.93
2018-05-23T19:59:00.397Z,2.90
2018-05-23T20:01:30.050Z,2.60
2018-05-23T20:03:59.804Z,2.70
2018-05-23T20:06:43.667Z,2.62
2018-05-23T20:09:13.254Z,2.87
2018-05-23T20:11:45.265Z,2.93
2018-05-23T20:14:14.971Z,2.83
2018-05-23T20:16:45.233Z,2.90
2018-05-23T20:19:15.022Z,2.80
2018-05-23T20:21:44.722Z,2.60
2018-05-23T20:24:14.351Z,5.80
2018-05-23T20:26:43.932Z,3.57
2018-05-23T20:29:13.613Z,3.10
2018-05-23T20:31:43.141Z,3.00
2018-05-23T20:36:23.896Z,2.83
2018-05-23T20:38:53.560Z,2.40
2018-05-23T20:43:38.691Z,2.90
2018-05-23T20:46:08.953Z,2.93
2018-05-23T20:48:38.495Z,2.80
2018-05-23T20:53:16.940Z,2.87
2018-05-23T20:55:46.590Z,3.10
2018-05-23T20:58:16.182Z,2.83
2018-05-23T21:00:45.823Z,2.90
2018-05-23T21:03:15.459Z,2.90
2018-05-23T21:05:45.222Z,2.93
2018-05-23T21:08:14.757Z,4.13
2018-05-23T21:10:45.377Z,4.53
2018-05-23T21:13:15.639Z,3.73
2018-05-23T21:15:45.321Z,22.73
